La Gloria, Texas
Current Conditions -  °F | °C
As of 10:35 AM on Friday 31 Oct 2014 (Local Time) from KEBG Reporting Station
Thunderstorm Thunderstorm  
Wind Chill: 72°   Ceiling: 2400
Heat Index: 72°   Visibility: 10mi
Dew Point: 65°   Wind: 20mph
Humidity: 79%   Direction: 360°N
Pressure: 30.21"   Gusts: 26mph
Location:  26.743°N, 98.5297°W
Report Text: KEBG 311535Z AUTO 36017G23KT 10SM VCTS SCT015 BKN024 OVC029 22/18 A3021 RMK AO2 LTG DSNT E T02210184
Loading
Personal Weather Stations






























Interactive Weather Map
Tropical Storm Tracking
New forecast layout! Learn more

10-Day Weather Forecast

Advertisements
Track Severe Weather on mobile